Alfred, New York
Current Conditions -  °F | °C
As of 1:56 AM on Saturday 20 Dec 2014 (Local Time) from KELZ Reporting Station
Overcast Overcast  
Wind Chill: -9°   Ceiling: 700
Heat Index: -5°   Visibility: 10mi
Dew Point: -7°   Wind: 6mph
Humidity: 85%   Direction: 340°NNW
Pressure: 30.13"   Gusts: NA
Location:  42.25°N, 77.79°W
Report Text: KELZ 200656Z AUTO 34005KT 10SM OVC007 M05/M07 A3013 RMK AO2 SLP234 T10501072
Loading
Personal Weather Stations






























Interactive Weather Map New forecast layout! Learn more

10-Day Weather Forecast

Advertisements
Track Severe Weather on mobile